createdAt,value
2023-04-01T00:00:32.754Z,13.82
2023-04-01T00:03:01.331Z,13.77
2023-04-01T00:05:28.975Z,14.00
2023-04-01T00:07:56.710Z,13.74
2023-04-01T00:10:24.246Z,13.71
2023-04-01T00:12:51.789Z,13.86
2023-04-01T00:15:19.398Z,13.82
2023-04-01T00:17:46.956Z,13.75
2023-04-01T00:20:15.294Z,13.71
2023-04-01T00:22:43.133Z,13.57
2023-04-01T00:25:11.159Z,13.48
2023-04-01T00:27:38.869Z,13.53
2023-04-01T00:30:07.249Z,13.34
2023-04-01T00:32:35.427Z,13.43
2023-04-01T00:35:03.520Z,13.40
2023-04-01T00:37:31.297Z,13.24
2023-04-01T00:39:59.238Z,13.32
2023-04-01T00:42:27.780Z,13.04
2023-04-01T00:44:56.957Z,12.94
2023-04-01T00:47:27.757Z,13.40
2023-04-01T00:49:56.849Z,13.47
2023-04-01T00:52:27.746Z,13.27
2023-04-01T00:55:02.124Z,13.04
2023-04-01T00:57:38.459Z,13.28
2023-04-01T01:00:11.530Z,13.44
2023-04-01T01:02:40.809Z,13.25
2023-04-01T01:05:08.512Z,13.20
2023-04-01T01:08:19.986Z,13.08
2023-04-01T01:10:51.757Z,13.21
2023-04-01T01:13:21.980Z,12.85
2023-04-01T01:15:57.549Z,13.08
2023-04-01T01:18:46.139Z,12.82
2023-04-01T01:21:34.951Z,12.96
2023-04-01T01:24:17.349Z,13.02
2023-04-01T01:26:56.773Z,13.04
2023-04-01T01:29:56.143Z,13.13
2023-04-01T01:32:43.994Z,12.80
2023-04-01T01:35:35.130Z,12.93
2023-04-01T01:38:08.120Z,12.88
2023-04-01T01:40:38.648Z,12.97
2023-04-01T01:43:10.288Z,12.84
2023-04-01T01:45:42.857Z,12.90
2023-04-01T01:48:12.443Z,12.88
2023-04-01T01:50:42.096Z,12.93
2023-04-01T01:53:12.722Z,12.98
2023-04-01T01:55:43.006Z,12.87
2023-04-01T01:58:19.556Z,12.76
2023-04-01T02:00:52.954Z,13.02
2023-04-01T02:03:22.959Z,13.09
2023-04-01T02:05:53.464Z,13.02
2023-04-01T02:08:28.492Z,12.97
2023-04-01T02:11:05.602Z,12.92
2023-04-01T02:13:47.653Z,13.00
2023-04-01T02:16:27.338Z,13.23
2023-04-01T02:18:57.486Z,13.21
2023-04-01T02:21:28.430Z,13.09
2023-04-01T02:23:57.665Z,13.14
2023-04-01T02:26:26.606Z,13.14
2023-04-01T02:28:56.786Z,13.31
2023-04-01T02:31:25.672Z,13.13
2023-04-01T02:33:54.133Z,12.94
2023-04-01T02:36:22.071Z,13.12
2023-04-01T02:38:51.591Z,13.11
2023-04-01T02:41:19.115Z,13.11
2023-04-01T02:43:46.648Z,13.09
2023-04-01T02:46:14.241Z,13.22
2023-04-01T02:48:41.751Z,13.13
2023-04-01T02:51:10.486Z,13.03
2023-04-01T02:53:38.010Z,13.21
2023-04-01T02:56:06.020Z,12.80
2023-04-01T02:58:33.544Z,13.12
2023-04-01T03:01:01.064Z,13.04
2023-04-01T03:03:28.635Z,13.11
2023-04-01T03:05:57.265Z,13.02
2023-04-01T03:08:24.787Z,13.06
2023-04-01T03:10:52.252Z,13.02
2023-04-01T03:13:19.761Z,13.07
2023-04-01T03:15:47.276Z,13.15
2023-04-01T03:18:14.855Z,13.36
2023-04-01T03:20:42.386Z,13.18
2023-04-01T03:23:10.691Z,13.44
2023-04-01T03:25:38.254Z,13.23
2023-04-01T03:28:05.931Z,13.36
2023-04-01T03:30:33.575Z,13.42
2023-04-01T03:33:01.652Z,13.17
2023-04-01T03:35:29.783Z,13.32
2023-04-01T03:37:58.027Z,13.46
2023-04-01T03:40:27.133Z,13.44
2023-04-01T03:42:54.812Z,13.22
2023-04-01T03:45:22.337Z,13.34
2023-04-01T03:47:49.847Z,13.53
2023-04-01T03:50:17.504Z,13.36
2023-04-01T03:52:45.131Z,13.12
2023-04-01T03:55:13.096Z,13.19
2023-04-01T03:57:40.614Z,13.29
2023-04-01T04:00:09.726Z,13.24
2023-04-01T04:02:37.510Z,13.40
2023-04-01T04:05:05.472Z,13.48
2023-04-01T04:07:32.999Z,13.26
2023-04-01T04:10:00.773Z,13.47
2023-04-01T04:12:28.260Z,13.44
2023-04-01T04:14:55.773Z,13.18
2023-04-01T04:17:23.322Z,13.41
2023-04-01T04:19:51.003Z,13.26
2023-04-01T04:22:18.524Z,13.59
2023-04-01T04:24:46.035Z,13.45
2023-04-01T04:27:13.642Z,13.47
2023-04-01T04:29:41.226Z,13.46
2023-04-01T04:32:09.029Z,13.29
2023-04-01T04:34:36.600Z,13.48
2023-04-01T04:37:04.229Z,13.54
2023-04-01T04:39:31.958Z,13.51
2023-04-01T04:41:59.479Z,13.21
2023-04-01T04:44:27.011Z,13.33
2023-04-01T04:46:55.852Z,13.45
2023-04-01T04:49:24.781Z,13.28
2023-04-01T04:51:53.326Z,13.45
2023-04-01T04:54:20.998Z,13.42
2023-04-01T04:56:48.590Z,13.35
2023-04-01T04:59:16.190Z,13.07
2023-04-01T05:01:43.741Z,13.16
2023-04-01T05:04:11.241Z,13.27
2023-04-01T05:06:38.762Z,13.20
2023-04-01T05:09:06.388Z,13.30
2023-04-01T05:11:33.913Z,13.32
2023-04-01T05:14:01.404Z,13.30
2023-04-01T05:16:28.928Z,13.57
2023-04-01T05:18:56.519Z,13.60
2023-04-01T05:21:24.063Z,13.59
2023-04-01T05:23:51.551Z,13.52
2023-04-01T05:26:19.055Z,13.57
2023-04-01T05:28:46.552Z,13.34
2023-04-01T05:31:14.095Z,13.37
2023-04-01T05:33:41.679Z,13.17
2023-04-01T05:36:17.463Z,13.38
2023-04-01T05:38:46.778Z,13.42
2023-04-01T05:41:14.966Z,13.40
2023-04-01T05:43:43.252Z,13.37
2023-04-01T05:46:10.941Z,13.22
2023-04-01T05:48:38.476Z,13.23
2023-04-01T05:51:06.648Z,13.42
2023-04-01T05:53:34.313Z,13.39
2023-04-01T05:56:05.878Z,13.54
2023-04-01T05:58:33.462Z,13.43
2023-04-01T06:01:16.327Z,13.41
2023-04-01T06:03:44.633Z,13.37
2023-04-01T06:06:32.694Z,13.38
2023-04-01T06:09:09.414Z,13.39
2023-04-01T06:12:05.581Z,13.43
2023-04-01T06:14:44.077Z,13.41
2023-04-01T06:17:39.025Z,13.48
2023-04-01T06:20:32.729Z,13.46
2023-04-01T06:23:54.383Z,13.49
2023-04-01T06:26:39.703Z,13.33
2023-04-01T06:29:27.678Z,13.62
2023-04-01T06:32:08.490Z,13.27
2023-04-01T06:34:47.453Z,13.37
2023-04-01T06:37:24.409Z,13.21
2023-04-01T06:40:25.969Z,13.40
2023-04-01T06:43:15.244Z,13.17
2023-04-01T06:45:51.400Z,13.29
2023-04-01T06:48:46.403Z,13.06
2023-04-01T06:51:35.405Z,13.13
2023-04-01T06:54:17.027Z,13.38
2023-04-01T06:56:48.330Z,13.15
2023-04-01T06:59:27.410Z,13.32
2023-04-01T07:02:03.698Z,13.36
2023-04-01T07:04:38.225Z,13.38
2023-04-01T07:07:12.716Z,13.31
2023-04-01T07:09:44.156Z,13.43
2023-04-01T07:12:26.209Z,13.28
2023-04-01T07:14:56.839Z,13.02
2023-04-01T07:17:33.271Z,13.17
2023-04-01T07:20:04.123Z,13.30
2023-04-01T07:22:47.462Z,13.11
2023-04-01T07:25:23.336Z,13.26
2023-04-01T07:27:52.175Z,13.32
2023-04-01T07:30:22.469Z,13.47
2023-04-01T07:33:00.589Z,13.45
2023-04-01T07:35:44.271Z,13.40
2023-04-01T07:38:30.410Z,13.50
2023-04-01T07:41:22.754Z,13.54
2023-04-01T07:44:01.997Z,13.73
2023-04-01T07:47:06.515Z,13.46
2023-04-01T07:49:58.110Z,13.46
2023-04-01T07:52:42.221Z,13.38
2023-04-01T07:55:27.066Z,13.72
2023-04-01T07:57:54.544Z,13.69
2023-04-01T08:00:26.538Z,13.66
2023-04-01T08:03:29.828Z,13.73
2023-04-01T08:06:30.980Z,13.78
2023-04-01T08:09:09.943Z,13.60
2023-04-01T08:11:43.761Z,13.64
2023-04-01T08:14:50.490Z,13.42
2023-04-01T08:17:20.817Z,13.99
2023-04-01T08:20:07.048Z,14.03
2023-04-01T08:22:45.351Z,13.86
2023-04-01T08:25:22.265Z,13.77
2023-04-01T08:27:55.681Z,13.90
2023-04-01T08:30:29.057Z,13.76
2023-04-01T08:33:08.104Z,13.69
2023-04-01T08:36:04.759Z,13.95
2023-04-01T08:38:42.940Z,14.07
2023-04-01T08:41:30.724Z,13.80
2023-04-01T08:44:47.792Z,14.00
2023-04-01T08:47:52.862Z,14.17
2023-04-01T08:50:48.329Z,14.15
2023-04-01T08:53:41.896Z,14.14
2023-04-01T08:56:33.920Z,14.50
2023-04-01T08:59:04.399Z,14.52
2023-04-01T09:01:46.387Z,14.50
2023-04-01T09:04:35.459Z,14.46
2023-04-01T09:07:14.685Z,14.53
2023-04-01T09:10:00.711Z,14.76
2023-04-01T09:12:38.119Z,14.58
2023-04-01T09:15:40.816Z,14.86
2023-04-01T09:18:37.995Z,14.86
2023-04-01T09:21:14.303Z,14.77
2023-04-01T09:23:56.621Z,14.70
2023-04-01T09:26:51.514Z,14.92
2023-04-01T09:29:50.374Z,14.80
2023-04-01T09:32:47.724Z,15.01
2023-04-01T09:35:27.201Z,14.95
2023-04-01T09:38:08.686Z,14.97
2023-04-01T09:40:54.045Z,15.02
2023-04-01T09:43:37.231Z,15.25
2023-04-01T09:46:26.186Z,15.33
2023-04-01T09:49:09.315Z,14.91
2023-04-01T09:52:01.423Z,14.49
2023-04-01T09:54:52.325Z,14.79
2023-04-01T09:57:37.186Z,15.00
2023-04-01T10:00:43.045Z,15.07
2023-04-01T10:03:22.753Z,15.33
2023-04-01T10:06:11.911Z,15.36
2023-04-01T10:09:12.114Z,15.38
2023-04-01T10:12:19.825Z,15.24
2023-04-01T10:15:21.849Z,15.62
2023-04-01T10:18:16.644Z,15.94
2023-04-01T10:21:13.718Z,15.26
2023-04-01T10:24:05.795Z,15.47
2023-04-01T10:27:11.078Z,15.41
2023-04-01T10:30:15.770Z,15.45
2023-04-01T10:33:01.975Z,15.40
2023-04-01T10:35:44.717Z,15.43
2023-04-01T10:38:42.635Z,15.60
2023-04-01T10:41:41.214Z,14.97
2023-04-01T10:44:34.883Z,14.91
2023-04-01T10:47:39.892Z,15.12
2023-04-01T10:50:29.122Z,15.03
2023-04-01T10:53:24.918Z,14.92
2023-04-01T10:56:10.738Z,15.06
2023-04-01T10:59:00.990Z,15.02
2023-04-01T11:02:04.031Z,15.42
2023-04-01T11:05:25.521Z,15.38
2023-04-01T11:08:20.817Z,15.83
2023-04-01T11:11:26.585Z,15.83
2023-04-01T11:14:05.999Z,16.31
2023-04-01T11:16:58.063Z,16.11
2023-04-01T11:19:40.642Z,16.48
2023-04-01T11:22:38.215Z,16.37
2023-04-01T11:25:27.508Z,16.73
2023-04-01T11:28:19.637Z,16.23
2023-04-01T11:31:17.818Z,16.33
2023-04-01T11:33:49.578Z,16.12
2023-04-01T11:36:28.303Z,15.66
2023-04-01T11:39:11.159Z,15.62
2023-04-01T11:42:06.347Z,15.77
2023-04-01T11:44:41.076Z,15.42
2023-04-01T11:47:41.926Z,16.06
2023-04-01T11:50:18.222Z,15.77
2023-04-01T11:53:01.143Z,15.66
2023-04-01T11:55:53.208Z,15.48
2023-04-01T11:58:42.312Z,15.51
2023-04-01T12:01:21.836Z,15.56
2023-04-01T12:04:32.789Z,15.49
2023-04-01T12:07:00.346Z,15.23
2023-04-01T12:09:40.034Z,15.38
2023-04-01T12:12:34.875Z,15.49
2023-04-01T12:15:18.127Z,15.33
2023-04-01T12:17:58.563Z,15.22
2023-04-01T12:20:54.244Z,15.26
2023-04-01T12:23:44.247Z,15.54
2023-04-01T12:26:32.659Z,15.38
2023-04-01T12:29:38.659Z,15.22
2023-04-01T12:32:37.078Z,15.13
2023-04-01T12:35:21.145Z,14.96
2023-04-01T12:38:21.692Z,15.01
2023-04-01T12:41:12.212Z,15.12
2023-04-01T12:43:58.106Z,14.94
2023-04-01T12:46:43.898Z,15.25
2023-04-01T12:49:39.072Z,15.21
2023-04-01T12:52:13.570Z,15.00
2023-04-01T12:54:50.011Z,15.43
2023-04-01T12:57:35.904Z,14.77
2023-04-01T13:00:34.489Z,15.05
2023-04-01T13:03:28.141Z,15.25
2023-04-01T13:06:22.974Z,15.00
2023-04-01T13:09:21.294Z,15.62
2023-04-01T13:12:27.718Z,15.44
2023-04-01T13:15:13.020Z,15.37
2023-04-01T13:18:02.415Z,15.80
2023-04-01T13:20:48.013Z,16.03
2023-04-01T13:23:34.132Z,16.56
2023-04-01T13:26:14.109Z,16.38
2023-04-01T13:28:55.641Z,16.11
2023-04-01T13:31:39.033Z,15.94
2023-04-01T13:34:49.321Z,16.09
2023-04-01T13:37:30.273Z,15.36
2023-04-01T13:40:22.199Z,15.21
2023-04-01T13:42:52.353Z,15.04
2023-04-01T13:45:47.055Z,14.96
2023-04-01T13:48:28.794Z,15.03
2023-04-01T13:51:47.586Z,14.87
2023-04-01T13:54:20.931Z,15.07
2023-04-01T13:57:09.991Z,14.90
2023-04-01T14:00:09.709Z,15.08
2023-04-01T14:02:58.398Z,14.99
2023-04-01T14:05:45.470Z,14.79
2023-04-01T14:08:46.645Z,14.85
2023-04-01T14:11:35.798Z,14.64
2023-04-01T14:14:37.344Z,14.55
2023-04-01T14:17:20.627Z,14.73
2023-04-01T14:20:12.753Z,14.28
2023-04-01T14:23:04.458Z,14.56
2023-04-01T14:25:59.516Z,14.59
2023-04-01T14:28:54.285Z,14.28
2023-04-01T14:31:24.750Z,14.47
2023-04-01T14:34:16.824Z,14.50
2023-04-01T14:37:14.128Z,14.21
2023-04-01T14:40:06.511Z,14.31
2023-04-01T14:43:07.985Z,14.36
2023-04-01T14:46:01.603Z,14.17
2023-04-01T14:48:40.955Z,14.45
2023-04-01T14:51:22.903Z,14.07
2023-04-01T14:54:02.794Z,14.13
2023-04-01T14:56:49.472Z,14.13
2023-04-01T14:59:23.099Z,13.99
2023-04-01T15:02:28.053Z,14.16
2023-04-01T15:05:21.444Z,14.07
2023-04-01T15:08:32.086Z,14.30
2023-04-01T15:10:59.526Z,14.19
2023-04-01T15:13:36.061Z,13.99
2023-04-01T15:16:27.629Z,14.01
2023-04-01T15:19:17.149Z,13.94
2023-04-01T15:22:20.869Z,13.99
2023-04-01T15:24:49.875Z,13.80
2023-04-01T15:27:33.191Z,13.71
2023-04-01T15:30:19.537Z,13.96
2023-04-01T15:33:15.583Z,13.82
2023-04-01T15:35:50.128Z,14.01
2023-04-01T15:38:32.867Z,13.76
2023-04-01T15:41:13.046Z,13.42
2023-04-01T15:43:50.132Z,13.53
2023-04-01T15:46:26.463Z,13.51
2023-04-01T15:49:00.474Z,13.79
2023-04-01T15:51:40.056Z,13.68
2023-04-01T15:54:42.606Z,13.79
2023-04-01T15:57:22.106Z,13.45
2023-04-01T15:59:49.655Z,13.49
2023-04-01T16:02:23.244Z,13.33
2023-04-01T16:05:00.385Z,13.67
2023-04-01T16:07:49.203Z,13.71
2023-04-01T16:10:35.145Z,13.92
2023-04-01T16:13:24.390Z,13.88
2023-04-01T16:16:07.395Z,13.22
2023-04-01T16:19:19.660Z,13.52
2023-04-01T16:21:50.318Z,12.88
2023-04-01T16:24:20.346Z,13.01
2023-04-01T16:27:06.518Z,13.23
2023-04-01T16:29:56.238Z,13.10
2023-04-01T16:32:33.188Z,13.23
2023-04-01T16:35:39.335Z,13.34
2023-04-01T16:38:24.591Z,13.13
2023-04-01T16:41:19.760Z,13.23
2023-04-01T16:43:56.369Z,13.11
2023-04-01T16:46:36.263Z,13.13
2023-04-01T16:49:48.691Z,12.87
2023-04-01T16:52:31.724Z,13.22
2023-04-01T16:55:04.868Z,13.15
2023-04-01T16:57:45.993Z,13.04
2023-04-01T17:00:47.056Z,13.17
2023-04-01T17:03:23.055Z,12.93
2023-04-01T17:05:53.452Z,12.89
2023-04-01T17:08:31.391Z,12.34
2023-04-01T17:11:12.059Z,12.64
2023-04-01T17:13:48.900Z,13.14
2023-04-01T17:16:45.799Z,13.09
2023-04-01T17:19:22.193Z,12.55
2023-04-01T17:22:02.571Z,12.27
2023-04-01T17:25:06.383Z,12.19
2023-04-01T17:27:53.970Z,12.17
2023-04-01T17:30:53.753Z,12.27
2023-04-01T17:33:49.388Z,12.61
2023-04-01T17:37:12.821Z,12.21
2023-04-01T17:39:59.349Z,12.37
2023-04-01T17:42:37.192Z,11.84
2023-04-01T17:45:23.474Z,12.26
2023-04-01T17:48:14.947Z,12.30
2023-04-01T17:50:56.118Z,12.25
2023-04-01T17:53:47.914Z,12.17
2023-04-01T17:56:24.226Z,12.26
2023-04-01T17:59:20.344Z,12.13
2023-04-01T18:01:50.377Z,12.14
2023-04-01T18:04:21.103Z,12.11
2023-04-01T18:07:06.937Z,12.11
2023-04-01T18:09:59.145Z,12.18
2023-04-01T18:12:37.183Z,12.14
2023-04-01T18:15:36.805Z,11.96
2023-04-01T18:18:46.109Z,12.26
2023-04-01T18:21:21.380Z,12.17
2023-04-01T18:24:47.697Z,11.98
2023-04-01T18:27:24.297Z,11.98
2023-04-01T18:30:09.951Z,12.01
2023-04-01T18:32:51.040Z,11.91
2023-04-01T18:35:36.528Z,11.81
2023-04-01T18:38:14.869Z,11.89
2023-04-01T18:40:52.892Z,12.48
2023-04-01T18:43:38.953Z,11.95
2023-04-01T18:46:28.138Z,12.13
2023-04-01T18:49:27.499Z,11.89
2023-04-01T18:52:00.768Z,11.86
2023-04-01T18:55:08.627Z,11.80
2023-04-01T18:57:53.925Z,11.98
2023-04-01T19:00:28.779Z,11.86
2023-04-01T19:03:22.260Z,11.77
2023-04-01T19:05:53.925Z,11.62
2023-04-01T19:08:35.805Z,12.08
2023-04-01T19:11:29.412Z,12.00
2023-04-01T19:14:07.645Z,11.80
2023-04-01T19:16:37.918Z,11.56
2023-04-01T19:19:21.015Z,11.58
2023-04-01T19:21:54.947Z,11.72
2023-04-01T19:24:44.254Z,11.98
2023-04-01T19:27:39.558Z,11.45
2023-04-01T19:30:27.925Z,11.23
2023-04-01T19:33:09.327Z,11.46
2023-04-01T19:35:52.119Z,11.58
2023-04-01T19:38:26.767Z,11.60
2023-04-01T19:40:54.247Z,11.30
2023-04-01T19:43:32.080Z,11.28
2023-04-01T19:46:13.041Z,11.37
2023-04-01T19:48:46.847Z,11.22
2023-04-01T19:51:29.300Z,11.43
2023-04-01T19:54:25.889Z,11.27
2023-04-01T19:57:05.915Z,11.52
2023-04-01T19:59:52.984Z,11.46
2023-04-01T20:02:38.782Z,11.10
2023-04-01T20:05:21.411Z,11.21
2023-04-01T20:07:56.767Z,11.26
2023-04-01T20:11:00.125Z,11.29
2023-04-01T20:13:45.220Z,10.91
2023-04-01T20:16:16.361Z,10.92
2023-04-01T20:18:50.403Z,11.08
2023-04-01T20:21:32.165Z,10.94
2023-04-01T20:24:25.832Z,10.90
2023-04-01T20:27:03.207Z,10.51
2023-04-01T20:29:59.268Z,10.62
2023-04-01T20:32:29.937Z,10.82
2023-04-01T20:35:19.465Z,11.03
2023-04-01T20:37:55.770Z,11.12
2023-04-01T20:40:25.970Z,10.75
2023-04-01T20:43:26.646Z,11.35
2023-04-01T20:45:59.664Z,10.70
2023-04-01T20:48:33.064Z,10.69
2023-04-01T20:51:08.732Z,10.62
2023-04-01T20:53:46.894Z,10.55
2023-04-01T20:56:36.358Z,10.63
2023-04-01T20:59:09.648Z,10.44
2023-04-01T21:02:03.067Z,10.84
2023-04-01T21:05:11.292Z,10.65
2023-04-01T21:07:47.600Z,10.84
2023-04-01T21:10:25.638Z,10.94
2023-04-01T21:13:11.930Z,10.62
2023-04-01T21:16:03.641Z,10.76
2023-04-01T21:19:07.018Z,10.64
2023-04-01T21:22:10.203Z,10.03
2023-04-01T21:25:20.531Z,10.35
2023-04-01T21:28:16.554Z,10.41
2023-04-01T21:31:07.316Z,10.42
2023-04-01T21:34:01.796Z,10.24
2023-04-01T21:37:10.621Z,10.96
2023-04-01T21:39:46.828Z,10.66
2023-04-01T21:42:20.595Z,10.76
2023-04-01T21:45:05.511Z,10.25
2023-04-01T21:47:35.763Z,10.20
2023-04-01T21:50:40.010Z,10.50
2023-04-01T21:53:10.707Z,10.26
2023-04-01T21:55:50.227Z,10.24
2023-04-01T21:58:40.351Z,10.53
2023-04-01T22:01:25.999Z,10.36
2023-04-01T22:04:08.876Z,9.93
2023-04-01T22:06:50.056Z,9.74
2023-04-01T22:09:26.568Z,9.91
2023-04-01T22:12:15.965Z,9.78
2023-04-01T22:14:59.156Z,10.17
2023-04-01T22:17:47.421Z,10.06
2023-04-01T22:20:34.179Z,9.66
2023-04-01T22:23:13.984Z,9.69
2023-04-01T22:26:04.112Z,9.54
2023-04-01T22:28:37.047Z,10.23
2023-04-01T22:31:09.439Z,10.07
2023-04-01T22:33:40.944Z,9.98
2023-04-01T22:36:13.596Z,9.93
2023-04-01T22:38:56.907Z,9.95
2023-04-01T22:41:59.851Z,9.38
2023-04-01T22:44:46.230Z,9.69
2023-04-01T22:47:34.072Z,9.64
2023-04-01T22:50:11.490Z,9.74
2023-04-01T22:52:49.192Z,9.62
2023-04-01T22:55:26.208Z,9.74
2023-04-01T22:58:05.812Z,9.43
2023-04-01T23:00:41.816Z,9.47
2023-04-01T23:03:19.919Z,9.62
2023-04-01T23:06:07.888Z,9.81
2023-04-01T23:08:56.837Z,9.54
2023-04-01T23:11:27.701Z,9.72
2023-04-01T23:14:08.855Z,9.53
2023-04-01T23:16:47.586Z,9.71
2023-04-01T23:19:26.822Z,9.89
2023-04-01T23:22:06.394Z,9.87
2023-04-01T23:25:15.313Z,9.42
2023-04-01T23:28:01.686Z,9.53
2023-04-01T23:30:41.471Z,9.60
2023-04-01T23:33:21.370Z,9.60
2023-04-01T23:36:06.349Z,9.57
2023-04-01T23:38:37.822Z,9.56
2023-04-01T23:41:07.277Z,9.42
2023-04-01T23:43:44.586Z,9.42
2023-04-01T23:46:14.559Z,9.22
2023-04-01T23:48:44.892Z,9.34
2023-04-01T23:51:39.710Z,9.33
2023-04-01T23:54:19.854Z,8.99
2023-04-01T23:56:54.447Z,9.66
2023-04-01T23:59:34.314Z,9.65
